Time;durP1;ratioP1;P1;durP2;ratioP2;P2;SDS_P1;SDS_P2;PMS_P1;PMS_P2;Temp;Humidity;BMP_temperature;BMP_pressure;BME280_temperature;BME280_humidity;BME280_pressure;Samples;Min_cycle;Max_cycle;Signal;HPM_P1;HPM_P2
2023/03/12 00:00:48;;;;;;;3.28;2.50;;;;;;;;;;5047509;28;20191;-49
2023/03/12 00:03:14;;;;;;;2.85;2.45;;;;;;;;;;5041372;28;20261;-49
2023/03/12 00:05:40;;;;;;;2.63;2.30;;;;;;;;;;5056269;28;20341;-50
2023/03/12 00:08:07;;;;;;;2.75;2.05;;;;;;;;;;5054881;28;20179;-50
2023/03/12 00:10:33;;;;;;;2.17;2.00;;;;;;;;;;5044304;28;20219;-50
2023/03/12 00:12:59;;;;;;;2.72;2.03;;;;;;;;;;5051723;28;20891;-50
2023/03/12 00:15:25;;;;;;;6.78;2.55;;;;;;;;;;5042137;28;20201;-50
2023/03/12 00:17:51;;;;;;;3.10;2.53;;;;;;;;;;5053599;28;20179;-50
2023/03/12 00:20:18;;;;;;;2.83;2.45;;;;;;;;;;5046368;28;20199;-50
2023/03/12 00:22:44;;;;;;;3.17;2.50;;;;;;;;;;5058693;28;20261;-50
2023/03/12 00:25:11;;;;;;;3.25;2.20;;;;;;;;;;5056923;28;20275;-50
2023/03/12 00:27:37;;;;;;;2.80;2.20;;;;;;;;;;5051079;28;20703;-50
2023/03/12 00:30:04;;;;;;;2.70;2.50;;;;;;;;;;5053676;28;20294;-49
2023/03/12 00:32:32;;;;;;;3.88;2.28;;;;;;;;;;5051436;28;20191;-49
2023/03/12 00:34:58;;;;;;;2.90;2.22;;;;;;;;;;5047339;28;20194;-49
2023/03/12 00:37:24;;;;;;;3.42;2.20;;;;;;;;;;5051266;28;20493;-49
2023/03/12 00:39:50;;;;;;;2.30;2.10;;;;;;;;;;5049635;28;20196;-49
2023/03/12 00:42:16;;;;;;;2.85;2.00;;;;;;;;;;5040520;28;20215;-49
2023/03/12 00:44:43;;;;;;;3.22;2.35;;;;;;;;;;5047201;28;20710;-49
2023/03/12 00:47:09;;;;;;;2.83;2.15;;;;;;;;;;5055271;28;20190;-49
2023/03/12 00:49:35;;;;;;;3.22;2.20;;;;;;;;;;5050110;28;20214;-50
2023/03/12 00:52:01;;;;;;;2.00;1.90;;;;;;;;;;5063079;28;20178;-50
2023/03/12 00:54:27;;;;;;;2.33;2.13;;;;;;;;;;5046154;28;20262;-50
2023/03/12 00:56:52;;;;;;;2.53;2.00;;;;;;;;;;5049755;28;20203;-49
2023/03/12 00:59:18;;;;;;;2.25;2.00;;;;;;;;;;5060538;28;20604;-49
2023/03/12 01:01:45;;;;;;;3.17;2.10;;;;;;;;;;5048552;28;20193;-49
2023/03/12 01:04:11;;;;;;;2.63;2.05;;;;;;;;;;5042613;28;20420;-49
2023/03/12 01:06:37;;;;;;;2.38;2.17;;;;;;;;;;5055883;28;20928;-50
2023/03/12 01:09:04;;;;;;;2.55;2.13;;;;;;;;;;5053896;28;20171;-49
2023/03/12 01:11:31;;;;;;;2.50;2.30;;;;;;;;;;5055011;28;20253;-50
2023/03/12 01:13:57;;;;;;;2.80;2.15;;;;;;;;;;5051370;28;20227;-50
2023/03/12 01:16:26;;;;;;;2.50;1.92;;;;;;;;;;5064526;28;20187;-48
2023/03/12 01:18:53;;;;;;;3.75;2.30;;;;;;;;;;5058996;28;20198;-49
2023/03/12 01:21:19;;;;;;;2.25;2.00;;;;;;;;;;5049219;28;20571;-48
2023/03/12 01:23:45;;;;;;;4.22;2.00;;;;;;;;;;5045383;28;20195;-48
2023/03/12 01:26:10;;;;;;;2.55;1.98;;;;;;;;;;5052935;28;20481;-48
2023/03/12 01:28:36;;;;;;;2.08;1.88;;;;;;;;;;5059481;28;20186;-49
2023/03/12 01:31:08;;;;;;;2.42;2.03;;;;;;;;;;5055586;28;20284;-48
2023/03/12 01:33:34;;;;;;;2.53;2.22;;;;;;;;;;5046821;28;20313;-48
2023/03/12 01:36:00;;;;;;;2.30;2.03;;;;;;;;;;5047495;28;20757;-49
2023/03/12 01:38:26;;;;;;;2.42;2.00;;;;;;;;;;5050649;28;20588;-48
2023/03/12 01:40:52;;;;;;;3.53;2.05;;;;;;;;;;5049593;28;20196;-48
2023/03/12 01:43:29;;;;;;;2.03;1.60;;;;;;;;;;5050262;28;20274;-48
2023/03/12 01:45:58;;;;;;;2.38;2.15;;;;;;;;;;5043048;28;21722;-49
2023/03/12 01:48:24;;;;;;;1.80;1.70;;;;;;;;;;5045323;28;20176;-49
2023/03/12 01:50:50;;;;;;;3.00;1.85;;;;;;;;;;5042240;28;20298;-49
2023/03/12 01:53:16;;;;;;;2.35;1.88;;;;;;;;;;5048613;28;20274;-49
2023/03/12 01:55:42;;;;;;;3.25;2.00;;;;;;;;;;5058414;28;20184;-48
2023/03/12 01:58:08;;;;;;;2.45;2.10;;;;;;;;;;5044674;28;20210;-48
2023/03/12 02:00:35;;;;;;;2.38;1.95;;;;;;;;;;5052967;28;20578;-48
2023/03/12 02:03:04;;;;;;;2.70;1.85;;;;;;;;;;5054265;28;20185;-48
2023/03/12 02:05:33;;;;;;;2.17;1.98;;;;;;;;;;5059040;28;20186;-48
2023/03/12 02:07:59;;;;;;;1.80;1.70;;;;;;;;;;5051453;28;20203;-49
2023/03/12 02:10:25;;;;;;;2.17;1.77;;;;;;;;;;5056097;28;20305;-49
2023/03/12 02:12:51;;;;;;;2.60;1.80;;;;;;;;;;5048787;28;20282;-48
2023/03/12 02:15:17;;;;;;;2.00;1.75;;;;;;;;;;5050743;28;20214;-48
2023/03/12 02:17:43;;;;;;;2.15;1.98;;;;;;;;;;5055285;28;20188;-49
2023/03/12 02:20:15;;;;;;;1.90;1.80;;;;;;;;;;5044620;28;20188;-49
2023/03/12 02:22:42;;;;;;;1.73;1.50;;;;;;;;;;5052649;28;20200;-49
2023/03/12 02:25:27;;;;;;;1.90;1.70;;;;;;;;;;5067218;28;20844;-49
2023/03/12 02:27:53;;;;;;;2.60;1.75;;;;;;;;;;5059436;28;20183;-49
2023/03/12 02:30:19;;;;;;;1.80;1.70;;;;;;;;;;5068745;28;20293;-49
2023/03/12 02:32:46;;;;;;;2.47;2.03;;;;;;;;;;5051287;28;20184;-49
2023/03/12 02:35:13;;;;;;;2.63;1.90;;;;;;;;;;5065423;28;20498;-49
2023/03/12 02:37:52;;;;;;;1.80;1.70;;;;;;;;;;5061129;28;20557;-48
2023/03/12 02:40:27;;;;;;;1.80;1.70;;;;;;;;;;5065708;28;20192;-48
2023/03/12 02:42:53;;;;;;;2.58;1.90;;;;;;;;;;5045391;28;20183;-49
2023/03/12 02:45:19;;;;;;;1.92;1.55;;;;;;;;;;5060235;28;20191;-49
2023/03/12 02:47:45;;;;;;;1.70;1.60;;;;;;;;;;5061590;28;20197;-49
2023/03/12 02:50:11;;;;;;;2.03;1.70;;;;;;;;;;5066362;28;20202;-50
2023/03/12 02:52:37;;;;;;;1.98;1.88;;;;;;;;;;5039167;28;20192;-49
2023/03/12 02:55:04;;;;;;;2.05;1.58;;;;;;;;;;5076636;28;20185;-48
2023/03/12 02:57:30;;;;;;;1.90;1.80;;;;;;;;;;5053417;28;20213;-48
2023/03/12 02:59:56;;;;;;;1.70;1.55;;;;;;;;;;5052972;28;20954;-49
2023/03/12 03:02:23;;;;;;;2.35;2.00;;;;;;;;;;5057626;28;20184;-48
2023/03/12 03:04:49;;;;;;;2.45;1.75;;;;;;;;;;5061622;28;20640;-49
2023/03/12 03:07:15;;;;;;;2.22;1.67;;;;;;;;;;5055814;28;20211;-49
2023/03/12 03:09:41;;;;;;;2.10;1.90;;;;;;;;;;5056696;28;20186;-50
2023/03/12 03:12:07;;;;;;;1.55;1.45;;;;;;;;;;5056946;28;20279;-49
2023/03/12 03:14:33;;;;;;;1.90;1.70;;;;;;;;;;5058465;28;20187;-49
2023/03/12 03:16:59;;;;;;;1.75;1.65;;;;;;;;;;5045499;28;20176;-53
2023/03/12 03:19:25;;;;;;;1.58;1.40;;;;;;;;;;5059577;28;20257;-50
2023/03/12 03:21:51;;;;;;;1.40;1.30;;;;;;;;;;5052686;28;20202;-50
2023/03/12 03:24:16;;;;;;;1.92;1.70;;;;;;;;;;5057084;28;20186;-49
2023/03/12 03:26:43;;;;;;;1.80;1.38;;;;;;;;;;5050186;28;20306;-49
2023/03/12 03:29:09;;;;;;;1.80;1.70;;;;;;;;;;5052789;28;20163;-50
2023/03/12 03:31:35;;;;;;;1.73;1.60;;;;;;;;;;5064677;28;20470;-50
2023/03/12 03:34:01;;;;;;;1.83;1.63;;;;;;;;;;5043920;28;20179;-49
2023/03/12 03:36:27;;;;;;;1.73;1.63;;;;;;;;;;5040869;28;20265;-49
2023/03/12 03:38:53;;;;;;;1.75;1.40;;;;;;;;;;5055816;28;20178;-49
2023/03/12 03:41:20;;;;;;;2.05;1.60;;;;;;;;;;5058982;28;20198;-49
2023/03/12 03:43:46;;;;;;;1.70;1.60;;;;;;;;;;5051078;28;20257;-49
2023/03/12 03:46:12;;;;;;;1.77;1.67;;;;;;;;;;5051157;28;20183;-49
2023/03/12 03:48:38;;;;;;;1.73;1.55;;;;;;;;;;5051028;28;20188;-49
2023/03/12 03:51:05;;;;;;;1.60;1.50;;;;;;;;;;5050274;28;20213;-49
2023/03/12 03:53:31;;;;;;;1.83;1.60;;;;;;;;;;5050046;28;20582;-49
2023/03/12 03:55:57;;;;;;;1.30;1.20;;;;;;;;;;5056539;28;20585;-49
2023/03/12 03:58:23;;;;;;;1.75;1.65;;;;;;;;;;5044143;28;20203;-49
2023/03/12 04:00:49;;;;;;;1.50;1.25;;;;;;;;;;5043178;28;20180;-49
2023/03/12 04:03:15;;;;;;;1.95;1.40;;;;;;;;;;5044822;28;20226;-49
2023/03/12 04:05:44;;;;;;;1.73;1.50;;;;;;;;;;5051682;28;20207;-49
2023/03/12 04:08:11;;;;;;;2.22;1.40;;;;;;;;;;5042685;28;20183;-49
2023/03/12 04:10:37;;;;;;;1.42;1.05;;;;;;;;;;5058763;28;20234;-50
2023/03/12 04:13:03;;;;;;;1.83;1.40;;;;;;;;;;5061332;28;20509;-50
2023/03/12 04:15:29;;;;;;;2.00;1.55;;;;;;;;;;5061156;28;20179;-50
2023/03/12 04:17:54;;;;;;;1.40;1.30;;;;;;;;;;5058499;28;20183;-49
2023/03/12 04:20:20;;;;;;;1.38;1.27;;;;;;;;;;5056510;28;20229;-49
2023/03/12 04:22:46;;;;;;;1.40;1.30;;;;;;;;;;5055094;28;20191;-49
2023/03/12 04:25:13;;;;;;;1.55;1.38;;;;;;;;;;5061500;28;20198;-49
2023/03/12 04:27:39;;;;;;;1.50;1.40;;;;;;;;;;5050054;28;20180;-49
2023/03/12 04:30:05;;;;;;;1.65;1.30;;;;;;;;;;5048477;28;20214;-49
2023/03/12 04:32:31;;;;;;;1.60;1.40;;;;;;;;;;5066406;28;20182;-49
2023/03/12 04:34:56;;;;;;;1.42;1.33;;;;;;;;;;5055285;28;20208;-50
2023/03/12 04:37:22;;;;;;;1.48;1.17;;;;;;;;;;5061440;28;20223;-49
2023/03/12 04:39:48;;;;;;;1.65;1.27;;;;;;;;;;5054553;28;20498;-49
2023/03/12 04:42:14;;;;;;;1.45;1.35;;;;;;;;;;5062322;28;20181;-49
2023/03/12 04:44:40;;;;;;;1.30;1.20;;;;;;;;;;5047026;28;20187;-49
2023/03/12 04:47:06;;;;;;;1.48;1.25;;;;;;;;;;5056691;28;20182;-49
2023/03/12 04:49:32;;;;;;;1.40;1.30;;;;;;;;;;5061341;28;20261;-49
2023/03/12 04:51:58;;;;;;;1.25;1.15;;;;;;;;;;5050577;28;20195;-49
2023/03/12 04:54:24;;;;;;;1.30;1.13;;;;;;;;;;5049973;28;20190;-49
2023/03/12 04:56:50;;;;;;;1.33;1.23;;;;;;;;;;5049259;28;20211;-49
2023/03/12 04:59:16;;;;;;;1.25;1.10;;;;;;;;;;5048157;28;20488;-49
2023/03/12 05:01:43;;;;;;;2.45;1.40;;;;;;;;;;5056257;28;20184;-49
2023/03/12 05:04:08;;;;;;;1.58;1.48;;;;;;;;;;5053142;28;20206;-49
2023/03/12 05:06:34;;;;;;;1.42;1.00;;;;;;;;;;5044529;28;20257;-49
2023/03/12 05:09:00;;;;;;;1.23;1.13;;;;;;;;;;5051091;28;20274;-50
2023/03/12 05:11:26;;;;;;;1.73;1.27;;;;;;;;;;5047601;28;20264;-50
2023/03/12 05:13:52;;;;;;;1.60;1.38;;;;;;;;;;5050956;28;20188;-50
2023/03/12 05:16:18;;;;;;;4.63;1.33;;;;;;;;;;5051192;28;20185;-50
2023/03/12 05:18:44;;;;;;;1.35;1.20;;;;;;;;;;5043613;28;20179;-49
2023/03/12 05:21:17;;;;;;;1.42;1.20;;;;;;;;;;5049739;28;20182;-49
2023/03/12 05:23:44;;;;;;;3.47;1.50;;;;;;;;;;5057571;28;20601;-50
2023/03/12 05:26:20;;;;;;;2.78;1.70;;;;;;;;;;5043717;28;20249;-50
2023/03/12 05:28:46;;;;;;;1.98;1.35;;;;;;;;;;5036154;28;20163;-50
2023/03/12 05:31:13;;;;;;;2.92;1.42;;;;;;;;;;5036064;28;20211;-50
2023/03/12 05:33:39;;;;;;;2.78;1.58;;;;;;;;;;5036074;28;20478;-49
2023/03/12 05:36:05;;;;;;;2.63;1.45;;;;;;;;;;5036353;28;20175;-50
2023/03/12 05:38:31;;;;;;;1.83;1.40;;;;;;;;;;5036126;28;20259;-50
2023/03/12 05:41:00;;;;;;;3.63;1.70;;;;;;;;;;5036126;28;20218;-50
2023/03/12 05:43:27;;;;;;;4.60;1.70;;;;;;;;;;5036244;28;20263;-50
2023/03/12 05:45:53;;;;;;;2.35;1.77;;;;;;;;;;5036164;28;20168;-49
2023/03/12 05:48:19;;;;;;;2.15;1.60;;;;;;;;;;5036232;28;20168;-50
2023/03/12 05:50:45;;;;;;;3.38;1.67;;;;;;;;;;5035812;28;20547;-50
2023/03/12 05:53:11;;;;;;;4.82;1.73;;;;;;;;;;5036083;28;20254;-50
2023/03/12 05:55:38;;;;;;;4.53;1.95;;;;;;;;;;5036055;28;20485;-49
2023/03/12 05:58:05;;;;;;;2.80;1.60;;;;;;;;;;5035997;28;20214;-49
2023/03/12 06:00:34;;;;;;;2.40;1.63;;;;;;;;;;5048706;28;20239;-49
2023/03/12 06:03:00;;;;;;;2.08;1.70;;;;;;;;;;5061934;28;20179;-49
2023/03/12 06:05:26;;;;;;;2.72;1.80;;;;;;;;;;5054080;28;20182;-50
2023/03/12 06:07:52;;;;;;;4.35;1.98;;;;;;;;;;5056337;28;20605;-49
2023/03/12 06:10:18;;;;;;;2.95;1.75;;;;;;;;;;5049289;28;20206;-49
2023/03/12 06:12:44;;;;;;;1.95;1.77;;;;;;;;;;5069972;28;20177;-49
2023/03/12 06:15:10;;;;;;;2.20;2.00;;;;;;;;;;5053314;28;20207;-49
2023/03/12 06:17:36;;;;;;;3.63;1.85;;;;;;;;;;5054205;28;20483;-49
2023/03/12 06:20:02;;;;;;;3.65;1.92;;;;;;;;;;5055298;28;20196;-50
2023/03/12 06:22:28;;;;;;;3.88;2.00;;;;;;;;;;5060850;28;20523;-50
2023/03/12 06:24:54;;;;;;;3.63;2.22;;;;;;;;;;5048265;28;20207;-50
2023/03/12 06:27:20;;;;;;;2.80;2.13;;;;;;;;;;5055043;28;20281;-50
2023/03/12 06:29:46;;;;;;;4.35;2.67;;;;;;;;;;5055402;28;20217;-50
2023/03/12 06:32:13;;;;;;;2.55;2.30;;;;;;;;;;5056059;28;20269;-50
2023/03/12 06:34:39;;;;;;;3.75;2.20;;;;;;;;;;5052412;28;20187;-49
2023/03/12 06:37:05;;;;;;;3.15;2.25;;;;;;;;;;5060589;28;20270;-49
2023/03/12 06:39:31;;;;;;;3.63;2.38;;;;;;;;;;5053837;28;20186;-50
2023/03/12 06:41:57;;;;;;;2.55;1.95;;;;;;;;;;5050185;28;20206;-50
2023/03/12 06:44:23;;;;;;;2.33;2.13;;;;;;;;;;5046356;28;20175;-50
2023/03/12 06:46:48;;;;;;;3.85;2.47;;;;;;;;;;5057222;28;20576;-50
2023/03/12 06:49:14;;;;;;;2.72;2.20;;;;;;;;;;5060166;28;20179;-50
2023/03/12 06:51:40;;;;;;;2.53;2.13;;;;;;;;;;5056453;28;20214;-50
2023/03/12 06:54:06;;;;;;;4.57;2.30;;;;;;;;;;5048498;28;20192;-48
2023/03/12 06:56:32;;;;;;;7.10;2.40;;;;;;;;;;5057707;28;20459;-48
2023/03/12 06:58:58;;;;;;;4.43;2.60;;;;;;;;;;5041720;28;20202;-48
2023/03/12 07:01:24;;;;;;;5.75;2.63;;;;;;;;;;5041414;28;20212;-49
2023/03/12 07:03:51;;;;;;;7.55;3.05;;;;;;;;;;5039704;28;20503;-49
2023/03/12 07:06:19;;;;;;;10.50;3.13;;;;;;;;;;5043339;28;20213;-49
2023/03/12 07:08:45;;;;;;;8.45;2.85;;;;;;;;;;5039451;28;20187;-49
2023/03/12 07:11:13;;;;;;;8.13;2.92;;;;;;;;;;5051330;28;20248;-49
2023/03/12 07:13:40;;;;;;;9.05;3.30;;;;;;;;;;5058698;28;20186;-49
2023/03/12 07:16:06;;;;;;;7.30;3.30;;;;;;;;;;5046432;28;20191;-49
2023/03/12 07:18:32;;;;;;;4.97;3.00;;;;;;;;;;5052950;28;20184;-47
2023/03/12 07:20:59;;;;;;;4.38;3.10;;;;;;;;;;5053792;28;20187;-48
2023/03/12 07:23:25;;;;;;;8.57;3.22;;;;;;;;;;5051149;28;20175;-48
2023/03/12 07:25:51;;;;;;;5.18;3.13;;;;;;;;;;5051028;28;20229;-48
2023/03/12 07:28:17;;;;;;;6.18;3.58;;;;;;;;;;5051228;28;20220;-48
2023/03/12 07:30:49;;;;;;;8.25;3.55;;;;;;;;;;5066502;28;20325;-48
2023/03/12 07:33:15;;;;;;;9.02;3.38;;;;;;;;;;5044416;28;20183;-48
2023/03/12 07:35:41;;;;;;;4.22;3.40;;;;;;;;;;5046880;28;20187;-48
2023/03/12 07:38:07;;;;;;;5.82;3.90;;;;;;;;;;5044689;28;20577;-48
2023/03/12 07:40:33;;;;;;;7.25;3.53;;;;;;;;;;5049273;28;20188;-49
2023/03/12 07:42:59;;;;;;;7.18;3.72;;;;;;;;;;5046077;28;20180;-48
2023/03/12 07:45:25;;;;;;;6.00;3.67;;;;;;;;;;5051273;28;20179;-48
2023/03/12 07:47:51;;;;;;;13.88;3.85;;;;;;;;;;5043153;28;20199;-48
2023/03/12 07:50:17;;;;;;;7.80;3.30;;;;;;;;;;5045605;28;20585;-49
2023/03/12 07:52:44;;;;;;;9.13;3.85;;;;;;;;;;5046790;28;20270;-48
2023/03/12 07:55:10;;;;;;;8.52;3.45;;;;;;;;;;5061622;28;20184;-48
2023/03/12 07:57:37;;;;;;;7.32;3.10;;;;;;;;;;5050536;28;20536;-48
2023/03/12 08:00:06;;;;;;;7.18;3.30;;;;;;;;;;5042542;28;20188;-49
2023/03/12 08:02:32;;;;;;;4.43;3.08;;;;;;;;;;5057218;28;20494;-49
2023/03/12 08:04:58;;;;;;;6.10;3.00;;;;;;;;;;5052865;28;20620;-49
2023/03/12 08:07:24;;;;;;;5.28;2.92;;;;;;;;;;5047594;28;20179;-49
2023/03/12 08:09:49;;;;;;;7.35;3.47;;;;;;;;;;5046644;28;20476;-49
2023/03/12 08:12:15;;;;;;;4.70;2.60;;;;;;;;;;5043199;28;20191;-49
2023/03/12 08:14:41;;;;;;;4.72;2.75;;;;;;;;;;5055284;28;20187;-49
2023/03/12 08:17:07;;;;;;;4.32;2.65;;;;;;;;;;5050131;28;20188;-48
2023/03/12 08:19:33;;;;;;;3.80;3.28;;;;;;;;;;5046256;28;20241;-48
2023/03/12 08:21:59;;;;;;;3.22;2.85;;;;;;;;;;5044604;28;20200;-48
2023/03/12 08:24:25;;;;;;;7.18;3.15;;;;;;;;;;5051208;28;20248;-48
2023/03/12 08:26:51;;;;;;;7.15;3.15;;;;;;;;;;5053361;28;20569;-49
2023/03/12 08:29:17;;;;;;;8.45;3.15;;;;;;;;;;5052347;28;20206;-49
2023/03/12 08:31:43;;;;;;;3.88;2.85;;;;;;;;;;5049839;28;20212;-49
2023/03/12 08:34:09;;;;;;;5.15;3.30;;;;;;;;;;5035446;28;20574;-49
2023/03/12 08:36:36;;;;;;;4.35;2.80;;;;;;;;;;5040409;28;20246;-49
2023/03/12 08:39:02;;;;;;;8.38;2.78;;;;;;;;;;5038791;28;20194;-49
2023/03/12 08:41:29;;;;;;;6.85;2.90;;;;;;;;;;5035890;28;20258;-49
2023/03/12 08:43:54;;;;;;;3.63;2.22;;;;;;;;;;5041879;28;20270;-49
2023/03/12 08:46:20;;;;;;;4.53;2.65;;;;;;;;;;5046621;28;20258;-48
2023/03/12 08:48:46;;;;;;;3.65;2.50;;;;;;;;;;5056290;28;20461;-48
2023/03/12 08:51:12;;;;;;;3.33;2.40;;;;;;;;;;5039476;28;20212;-49
2023/03/12 08:53:38;;;;;;;4.80;2.50;;;;;;;;;;5055280;28;20183;-49
2023/03/12 08:56:04;;;;;;;5.35;2.83;;;;;;;;;;5066954;28;20561;-49
2023/03/12 08:58:31;;;;;;;6.20;2.72;;;;;;;;;;5056443;28;20660;-49
2023/03/12 09:00:57;;;;;;;5.15;2.35;;;;;;;;;;5040414;28;20313;-49
2023/03/12 09:03:23;;;;;;;4.78;2.53;;;;;;;;;;5056581;28;20266;-49
2023/03/12 09:05:50;;;;;;;4.10;2.25;;;;;;;;;;5057889;28;20186;-49
2023/03/12 09:08:16;;;;;;;3.70;2.25;;;;;;;;;;5051027;28;20561;-49
2023/03/12 09:10:46;;;;;;;4.95;2.72;;;;;;;;;;5044901;28;20246;-49
2023/03/12 09:13:12;;;;;;;4.35;2.20;;;;;;;;;;5050246;28;20493;-50
2023/03/12 09:15:38;;;;;;;4.95;2.22;;;;;;;;;;5052173;28;20190;-49
2023/03/12 09:18:04;;;;;;;5.68;2.20;;;;;;;;;;5058339;28;20201;-49
2023/03/12 09:20:31;;;;;;;3.67;1.83;;;;;;;;;;5037550;28;20575;-49
2023/03/12 09:22:56;;;;;;;3.28;2.10;;;;;;;;;;5043988;28;20178;-49
2023/03/12 09:25:22;;;;;;;4.10;2.03;;;;;;;;;;5068288;28;20218;-49
2023/03/12 09:27:48;;;;;;;3.03;1.90;;;;;;;;;;5053786;28;20195;-49
2023/03/12 09:30:16;;;;;;;4.13;2.38;;;;;;;;;;5048840;28;20246;-49
2023/03/12 09:32:44;;;;;;;3.35;2.20;;;;;;;;;;5047818;28;20230;-49
2023/03/12 09:35:10;;;;;;;2.17;1.98;;;;;;;;;;5050002;28;20175;-49
2023/03/12 09:37:36;;;;;;;4.25;2.08;;;;;;;;;;5050015;28;20262;-49
2023/03/12 09:40:06;;;;;;;3.70;2.00;;;;;;;;;;5045246;28;20575;-49
2023/03/12 09:42:32;;;;;;;2.88;1.90;;;;;;;;;;5048676;28;20179;-49
2023/03/12 09:44:59;;;;;;;4.20;2.00;;;;;;;;;;5058506;28;20613;-49
2023/03/12 09:47:30;;;;;;;2.83;1.85;;;;;;;;;;5068528;28;20220;-49
2023/03/12 09:49:58;;;;;;;2.45;1.73;;;;;;;;;;5050924;28;20283;-49
2023/03/12 09:52:30;;;;;;;3.95;1.65;;;;;;;;;;5056444;28;20209;-49
2023/03/12 09:55:02;;;;;;;1.58;1.48;;;;;;;;;;5065138;28;20217;-49
2023/03/12 09:57:28;;;;;;;2.55;1.60;;;;;;;;;;5059651;28;20180;-49
2023/03/12 09:59:55;;;;;;;2.42;1.63;;;;;;;;;;5059434;28;20263;-49
2023/03/12 10:02:40;;;;;;;3.20;1.92;;;;;;;;;;5046494;28;20185;-49
2023/03/12 10:05:09;;;;;;;3.67;1.75;;;;;;;;;;5039703;28;20237;-49
2023/03/12 10:07:37;;;;;;;4.40;1.60;;;;;;;;;;5060581;28;20230;-49
2023/03/12 10:10:09;;;;;;;2.95;1.83;;;;;;;;;;5047808;28;20216;-49
2023/03/12 10:12:44;;;;;;;1.70;1.42;;;;;;;;;;5048128;28;20176;-49
2023/03/12 10:15:10;;;;;;;2.30;1.60;;;;;;;;;;5052548;28;20648;-49
2023/03/12 10:17:39;;;;;;;1.95;1.40;;;;;;;;;;5049375;28;20179;-49
2023/03/12 10:20:06;;;;;;;2.92;1.40;;;;;;;;;;5046983;28;20217;-49
2023/03/12 10:22:35;;;;;;;2.00;1.58;;;;;;;;;;5043187;28;20238;-49
2023/03/12 10:25:04;;;;;;;2.58;1.50;;;;;;;;;;5042708;28;20271;-49
2023/03/12 10:27:34;;;;;;;2.17;1.60;;;;;;;;;;5045588;28;20250;-49
2023/03/12 10:30:00;;;;;;;3.33;1.40;;;;;;;;;;5048496;28;20206;-49
2023/03/12 10:32:38;;;;;;;1.50;1.30;;;;;;;;;;5037259;28;20180;-49
2023/03/12 10:35:13;;;;;;;2.25;1.40;;;;;;;;;;5037244;28;20262;-49
2023/03/12 10:37:50;;;;;;;1.45;1.35;;;;;;;;;;5041600;28;20183;-49
2023/03/12 10:40:18;;;;;;;1.42;1.33;;;;;;;;;;5039710;28;20187;-49
2023/03/12 10:42:44;;;;;;;1.58;1.38;;;;;;;;;;5045703;28;20793;-49
2023/03/12 10:45:10;;;;;;;1.75;1.42;;;;;;;;;;5065564;28;20193;-49
2023/03/12 10:47:37;;;;;;;1.38;1.27;;;;;;;;;;5054831;28;20191;-49
2023/03/12 10:50:19;;;;;;;2.15;1.33;;;;;;;;;;5053229;28;20508;-49
2023/03/12 10:52:47;;;;;;;1.92;1.40;;;;;;;;;;5041818;28;20182;-49
2023/03/12 10:55:28;;;;;;;1.70;1.60;;;;;;;;;;5047473;28;20183;-49
2023/03/12 10:57:54;;;;;;;1.98;1.30;;;;;;;;;;5052690;28;20267;-49
2023/03/12 11:00:24;;;;;;;1.38;1.27;;;;;;;;;;5048798;28;20260;-49
2023/03/12 11:03:04;;;;;;;1.60;1.50;;;;;;;;;;5044210;28;20180;-49
2023/03/12 11:05:47;;;;;;;2.55;1.70;;;;;;;;;;5061220;28;20198;-49
2023/03/12 11:08:25;;;;;;;2.33;1.55;;;;;;;;;;5058547;28;20761;-49
2023/03/12 11:10:51;;;;;;;1.52;1.42;;;;;;;;;;5047658;28;20480;-49
2023/03/12 11:13:28;;;;;;;1.85;1.55;;;;;;;;;;5051617;28;20187;-49
2023/03/12 11:16:01;;;;;;;1.42;1.30;;;;;;;;;;5061902;28;20178;-49
2023/03/12 11:18:36;;;;;;;1.23;1.13;;;;;;;;;;5057162;28;20229;-49
2023/03/12 11:21:07;;;;;;;1.52;1.13;;;;;;;;;;5048599;28;20586;-49
2023/03/12 11:23:34;;;;;;;1.75;1.20;;;;;;;;;;5044653;28;20202;-48
2023/03/12 11:26:01;;;;;;;3.42;1.55;;;;;;;;;;5063835;28;20187;-48
2023/03/12 11:28:32;;;;;;;1.40;1.30;;;;;;;;;;5064920;28;20179;-48
2023/03/12 11:30:58;;;;;;;2.05;1.35;;;;;;;;;;5050955;28;20202;-49
2023/03/12 11:33:24;;;;;;;1.77;1.23;;;;;;;;;;5049005;28;20611;-49
2023/03/12 11:35:53;;;;;;;1.70;1.40;;;;;;;;;;5046292;28;20207;-49
2023/03/12 11:38:20;;;;;;;1.60;1.50;;;;;;;;;;5046586;28;20237;-49
2023/03/12 11:40:58;;;;;;;1.65;1.40;;;;;;;;;;5045217;28;20194;-49
2023/03/12 11:43:35;;;;;;;1.27;1.10;;;;;;;;;;5049419;28;20558;-49
2023/03/12 11:46:12;;;;;;;1.38;1.10;;;;;;;;;;5058138;28;20264;-49
2023/03/12 11:48:44;;;;;;;1.35;1.10;;;;;;;;;;5043248;28;20205;-49
2023/03/12 11:51:24;;;;;;;3.58;1.23;;;;;;;;;;5049305;28;20495;-49
2023/03/12 11:54:14;;;;;;;1.73;1.10;;;;;;;;;;5041064;28;20261;-49
2023/03/12 11:56:51;;;;;;;1.95;1.13;;;;;;;;;;5046560;28;20183;-49
2023/03/12 11:59:23;;;;;;;2.08;1.35;;;;;;;;;;5040449;28;20390;-49
2023/03/12 12:02:12;;;;;;;1.90;1.05;;;;;;;;;;5047258;28;20189;-49
2023/03/12 12:04:57;;;;;;;1.50;1.15;;;;;;;;;;5044663;28;20202;-49
2023/03/12 12:07:38;;;;;;;1.10;1.00;;;;;;;;;;5052103;28;20229;-48
2023/03/12 12:10:14;;;;;;;1.38;1.10;;;;;;;;;;5041497;28;20211;-49
2023/03/12 12:12:52;;;;;;;0.80;0.80;;;;;;;;;;5051581;28;20538;-49
2023/03/12 12:15:33;;;;;;;1.25;1.10;;;;;;;;;;5064039;28;20182;-48
2023/03/12 12:18:04;;;;;;;1.52;1.10;;;;;;;;;;5058968;28;20230;-48
2023/03/12 12:20:43;;;;;;;0.90;0.90;;;;;;;;;;5059728;28;20186;-48
2023/03/12 12:23:15;;;;;;;1.30;1.20;;;;;;;;;;5053342;28;20186;-48
2023/03/12 12:25:56;;;;;;;1.45;1.10;;;;;;;;;;5047208;28;20562;-49
2023/03/12 12:28:33;;;;;;;2.05;1.23;;;;;;;;;;5044562;28;20188;-49
2023/03/12 12:31:20;;;;;;;1.83;1.00;;;;;;;;;;5047888;28;20309;-48
2023/03/12 12:33:51;;;;;;;1.10;1.00;;;;;;;;;;5038991;28;20184;-48
2023/03/12 12:36:17;;;;;;;1.00;0.90;;;;;;;;;;5047185;28;20439;-48
2023/03/12 12:38:46;;;;;;;1.10;1.00;;;;;;;;;;5052334;28;20178;-49
2023/03/12 12:41:17;;;;;;;1.15;1.05;;;;;;;;;;5059566;28;20202;-49
2023/03/12 12:43:43;;;;;;;1.20;1.10;;;;;;;;;;5052002;28;20174;-49
2023/03/12 12:46:19;;;;;;;1.67;1.10;;;;;;;;;;5059024;28;20239;-49
2023/03/12 12:48:52;;;;;;;1.00;1.00;;;;;;;;;;5045959;28;20374;-49
2023/03/12 12:51:20;;;;;;;1.48;1.10;;;;;;;;;;5045664;28;20214;-49
2023/03/12 12:53:53;;;;;;;1.02;0.93;;;;;;;;;;5046411;28;20220;-49
2023/03/12 12:56:29;;;;;;;1.40;1.20;;;;;;;;;;5044102;28;20263;-49
2023/03/12 12:59:02;;;;;;;1.73;1.20;;;;;;;;;;5043098;28;20255;-49
2023/03/12 13:01:32;;;;;;;1.25;1.15;;;;;;;;;;5056023;28;20186;-49
2023/03/12 13:04:05;;;;;;;1.10;1.00;;;;;;;;;;5040679;28;20191;-48
2023/03/12 13:06:50;;;;;;;1.10;0.90;;;;;;;;;;5039575;28;20202;-48
2023/03/12 13:09:21;;;;;;;0.90;0.90;;;;;;;;;;5048476;28;20207;-48
2023/03/12 13:11:49;;;;;;;1.08;0.98;;;;;;;;;;5042003;28;20211;-48
2023/03/12 13:14:22;;;;;;;2.22;1.00;;;;;;;;;;5048123;28;20649;-48
2023/03/12 13:16:48;;;;;;;0.98;0.90;;;;;;;;;;5055187;28;20177;-49
2023/03/12 13:19:14;;;;;;;1.58;1.00;;;;;;;;;;5051599;28;20201;-49
2023/03/12 13:21:40;;;;;;;1.27;1.00;;;;;;;;;;5040724;28;20406;-49
2023/03/12 13:24:20;;;;;;;1.30;1.20;;;;;;;;;;5045571;28;20187;-49
2023/03/12 13:26:51;;;;;;;1.10;1.00;;;;;;;;;;5035556;28;20205;-49
2023/03/12 13:29:32;;;;;;;0.98;0.90;;;;;;;;;;5050976;28;20187;-49
2023/03/12 13:31:59;;;;;;;0.73;0.73;;;;;;;;;;5040706;28;20226;-49
2023/03/12 13:34:25;;;;;;;1.10;1.00;;;;;;;;;;5048038;28;20563;-49
2023/03/12 13:36:52;;;;;;;2.58;1.00;;;;;;;;;;5049165;28;20265;-49
2023/03/12 13:39:27;;;;;;;0.80;0.80;;;;;;;;;;5044904;28;20184;-49
2023/03/12 13:41:56;;;;;;;0.90;0.85;;;;;;;;;;5044702;28;20230;-49
2023/03/12 13:44:22;;;;;;;0.90;0.90;;;;;;;;;;5052404;28;20179;-49
2023/03/12 13:46:57;;;;;;;0.85;0.85;;;;;;;;;;5049032;28;20190;-49
2023/03/12 13:49:24;;;;;;;1.00;0.90;;;;;;;;;;5050782;28;20179;-49
2023/03/12 13:52:08;;;;;;;1.25;0.85;;;;;;;;;;5059463;28;20241;-49
2023/03/12 13:54:35;;;;;;;0.77;0.77;;;;;;;;;;5051702;28;20175;-49
2023/03/12 13:57:10;;;;;;;1.10;1.00;;;;;;;;;;5041800;28;20218;-49
2023/03/12 13:59:42;;;;;;;1.52;0.90;;;;;;;;;;5064123;28;20179;-49
2023/03/12 14:02:14;;;;;;;1.10;0.90;;;;;;;;;;5054414;28;20178;-49
2023/03/12 14:04:41;;;;;;;1.02;0.98;;;;;;;;;;5056167;28;20207;-48
2023/03/12 14:07:22;;;;;;;1.02;0.82;;;;;;;;;;5056703;28;20182;-48
2023/03/12 14:09:55;;;;;;;1.08;0.85;;;;;;;;;;5052472;28;20606;-49
2023/03/12 14:12:21;;;;;;;0.80;0.70;;;;;;;;;;5041039;28;20184;-49
2023/03/12 14:14:49;;;;;;;1.00;0.80;;;;;;;;;;5051654;28;20554;-49
2023/03/12 14:17:17;;;;;;;1.10;1.00;;;;;;;;;;5060311;28;20559;-49
2023/03/12 14:19:48;;;;;;;0.82;0.82;;;;;;;;;;5051182;28;20178;-49
2023/03/12 14:22:14;;;;;;;1.42;1.00;;;;;;;;;;5074005;28;20194;-49
2023/03/12 14:24:42;;;;;;;1.05;0.93;;;;;;;;;;5055127;28;20187;-49
2023/03/12 14:27:13;;;;;;;1.25;1.00;;;;;;;;;;5068884;28;20242;-49
2023/03/12 14:29:55;;;;;;;0.90;0.90;;;;;;;;;;5051861;28;20501;-49
2023/03/12 14:32:23;;;;;;;4.57;0.90;;;;;;;;;;5063617;28;20179;-49
2023/03/12 14:34:52;;;;;;;1.23;1.13;;;;;;;;;;5048107;28;20179;-49
2023/03/12 14:37:22;;;;;;;2.03;0.80;;;;;;;;;;5061019;28;20179;-48
2023/03/12 14:40:00;;;;;;;1.77;0.90;;;;;;;;;;5053656;28;20213;-48
2023/03/12 14:42:30;;;;;;;3.33;1.08;;;;;;;;;;5051948;28;20237;-48
2023/03/12 14:45:01;;;;;;;0.98;0.90;;;;;;;;;;5061343;28;20175;-49
2023/03/12 14:47:27;;;;;;;3.05;1.02;;;;;;;;;;5049795;28;20229;-48
2023/03/12 14:49:55;;;;;;;1.55;1.10;;;;;;;;;;5050049;28;20175;-48